Time;durP1;ratioP1;P1;durP2;ratioP2;P2;SDS_P1;SDS_P2;PMS_P1;PMS_P2;Temp;Humidity;BMP_temperature;BMP_pressure;BME280_temperature;BME280_humidity;BME280_pressure;Samples;Min_cycle;Max_cycle;Signal;HPM_P1;HPM_P2
2023/09/15 00:01:21;;;;;;;31.65;28.23;;;;;;;19.02;91.64;97771.16;10405904;28;20121;-52
2023/09/15 00:06:20;;;;;;;33.88;30.17;;;;;;;19.31;91.74;97813.97;10406333;28;20048;-52
2023/09/15 00:11:20;;;;;;;32.35;28.75;;;;;;;19.06;91.07;97766.63;10406983;28;20032;-52
2023/09/15 00:16:18;;;;;;;30.05;25.52;;;;;;;18.90;91.39;97761.06;10406163;28;20071;-52
2023/09/15 00:21:19;;;;;;;30.52;25.83;;;;;;;19.36;90.75;97827.81;10408033;28;20024;-52
2023/09/15 00:26:23;;;;;;;31.75;26.63;;;;;;;19.40;90.43;97834.72;10413729;28;20048;-53
2023/09/15 00:31:23;;;;;;;32.35;25.58;;;;;;;19.19;91.09;97831.06;10413761;28;20052;-53
2023/09/15 00:36:22;;;;;;;29.20;26.08;;;;;;;19.06;90.47;97799.97;10413230;28;20056;-52
2023/09/15 00:41:21;;;;;;;32.25;27.23;;;;;;;19.23;90.55;97823.94;10413070;28;20020;-52
2023/09/15 00:46:20;;;;;;;28.50;25.52;;;;;;;19.22;90.76;97835.34;10412411;28;20094;-53
2023/09/15 00:51:21;;;;;;;30.88;27.05;;;;;;;19.23;90.69;97826.56;10410499;28;20116;-52
2023/09/15 00:56:20;;;;;;;31.67;28.38;;;;;;;19.27;90.59;97838.66;10411578;28;20051;-53
2023/09/15 01:01:20;;;;;;;37.85;29.50;;;;;;;19.20;90.68;97838.03;10411023;28;20451;-52
2023/09/15 01:06:22;;;;;;;40.45;33.42;;;;;;;19.08;90.81;97832.34;10411397;28;20044;-52
2023/09/15 01:11:21;;;;;;;38.45;34.30;;;;;;;19.10;92.03;97859.44;10414351;28;20063;-53
2023/09/15 01:16:37;;;;;;;40.38;36.05;;;;;;;18.98;92.16;97853.69;10414929;28;20037;-52
2023/09/15 01:22:15;;;;;;;41.20;36.58;;;;;;;18.71;92.07;97834.41;10413861;28;20079;-53
2023/09/15 01:27:50;;;;;;;42.05;36.63;;;;;;;18.87;92.17;97855.81;10414299;28;20056;-52
2023/09/15 01:32:50;;;;;;;42.45;36.58;;;;;;;18.73;92.13;97847.50;10400505;28;20080;-52
2023/09/15 01:37:49;;;;;;;43.22;38.17;;;;;;;18.78;92.37;97861.34;10414397;28;20075;-52
2023/09/15 01:42:50;;;;;;;46.10;40.35;;;;;;;18.43;92.26;97808.13;10414318;28;20111;-52
2023/09/15 01:47:50;;;;;;;47.22;40.45;;;;;;;18.76;92.39;97871.06;10414113;28;20064;-52
2023/09/15 01:52:50;;;;;;;46.78;39.75;;;;;;;18.15;92.00;97772.22;10413602;28;20074;-52
2023/09/15 01:57:49;;;;;;;43.78;38.97;;;;;;;18.74;92.13;97871.13;10413522;28;20060;-53
2023/09/15 02:02:48;;;;;;;48.28;41.67;;;;;;;18.71;92.49;97859.84;10411658;28;20499;-52
2023/09/15 02:07:47;;;;;;;50.72;44.05;;;;;;;18.73;92.33;97855.41;10413160;28;20681;-51
2023/09/15 02:12:46;;;;;;;58.28;48.75;;;;;;;18.70;92.68;97858.13;10409986;28;20544;-52
2023/09/15 02:17:45;;;;;;;54.38;46.80;;;;;;;18.46;92.99;97834.31;10409258;28;20131;-52
2023/09/15 02:22:44;;;;;;;56.50;47.17;;;;;;;18.61;93.58;97867.13;10407817;28;20043;-52
2023/09/15 02:27:43;;;;;;;52.33;44.90;;;;;;;18.23;93.79;97815.78;10408270;28;20131;-52
2023/09/15 02:32:44;;;;;;;51.65;43.63;;;;;;;18.44;94.17;97872.91;10405621;28;20051;-53
2023/09/15 02:37:43;;;;;;;52.35;43.80;;;;;;;18.38;94.29;97873.94;10408883;28;20056;-53
2023/09/15 02:42:42;;;;;;;57.83;46.38;;;;;;;18.38;94.17;97873.94;10408751;28;20032;-53
2023/09/15 02:47:41;;;;;;;57.60;46.78;;;;;;;18.33;94.22;97870.59;10407977;28;20028;-53
2023/09/15 02:52:40;;;;;;;58.40;49.28;;;;;;;18.08;94.23;97833.72;10406939;28;20135;-53
2023/09/15 02:57:39;;;;;;;60.45;51.13;;;;;;;18.23;94.67;97865.69;10408031;28;20021;-53
2023/09/15 03:02:38;;;;;;;62.92;50.55;;;;;;;18.35;94.85;97874.03;10408495;28;20103;-52
2023/09/15 03:07:39;;;;;;;65.45;50.55;;;;;;;18.36;94.60;97885.41;10408096;28;20056;-53
2023/09/15 03:12:38;;;;;;;54.25;45.92;;;;;;;18.36;94.78;97885.41;10407954;28;20514;-53
2023/09/15 03:17:37;;;;;;;50.35;43.90;;;;;;;18.42;94.82;97885.22;10407572;28;20508;-52
2023/09/15 03:22:36;;;;;;;45.55;40.58;;;;;;;18.11;94.03;97838.88;10407561;28;20655;-53
2023/09/15 03:27:35;;;;;;;45.83;38.08;;;;;;;18.37;94.31;97895.88;10407873;28;20024;-53
2023/09/15 03:32:35;;;;;;;42.30;36.40;;;;;;;18.38;93.54;97902.00;10407345;28;20125;-53
2023/09/15 03:37:34;;;;;;;42.03;35.72;;;;;;;17.96;93.96;97855.06;10407424;28;20044;-53
2023/09/15 03:42:33;;;;;;;37.03;33.00;;;;;;;18.18;93.89;97892.94;10407553;28;20033;-53
2023/09/15 03:47:32;;;;;;;37.42;31.25;;;;;;;18.17;93.15;97899.13;10405674;28;20060;-52
2023/09/15 03:52:31;;;;;;;36.88;32.83;;;;;;;18.23;92.95;97905.09;10407166;28;20061;-53
2023/09/15 03:57:30;;;;;;;35.00;30.65;;;;;;;18.26;91.98;97918.13;10410328;28;20697;-53
2023/09/15 04:02:29;;;;;;;31.10;27.83;;;;;;;18.01;91.71;97929.34;10414800;28;20103;-53
2023/09/15 04:07:28;;;;;;;31.35;27.58;;;;;;;17.94;91.46;97923.41;10413943;28;20020;-53
2023/09/15 04:12:27;;;;;;;31.58;27.80;;;;;;;18.03;91.45;97931.91;10413918;28;20450;-53
2023/09/15 04:17:26;;;;;;;34.83;26.83;;;;;;;18.07;91.02;97929.16;10415404;28;20067;-53
2023/09/15 04:22:28;;;;;;;33.15;28.52;;;;;;;18.13;90.52;97933.41;10415171;28;20100;-53
2023/09/15 04:27:27;;;;;;;33.60;28.92;;;;;;;18.10;90.49;97931.69;10415972;28;20511;-53
2023/09/15 04:32:26;;;;;;;34.53;30.83;;;;;;;18.06;90.86;97939.69;10415043;28;20596;-53
2023/09/15 04:37:25;;;;;;;35.50;31.70;;;;;;;17.98;90.95;97926.78;10415253;28;20064;-53
2023/09/15 04:42:24;;;;;;;38.55;33.13;;;;;;;18.08;91.25;97933.53;10413340;28;20033;-53
2023/09/15 04:47:34;;;;;;;38.45;34.28;;;;;;;18.11;91.73;97949.19;10416085;28;20111;-53
2023/09/15 04:52:33;;;;;;;37.47;33.50;;;;;;;17.96;91.70;97913.72;10414919;28;20063;-53
2023/09/15 04:57:32;;;;;;;35.88;32.20;;;;;;;18.21;91.86;97948.94;10415359;28;20044;-53
2023/09/15 05:02:32;;;;;;;43.75;35.25;;;;;;;18.04;91.88;97899.50;10415141;28;20486;-53
2023/09/15 05:07:31;;;;;;;40.63;33.30;;;;;;;18.47;91.64;97950.78;10414975;28;20503;-53
2023/09/15 05:12:30;;;;;;;32.70;29.20;;;;;;;18.52;91.93;97962.03;10407935;28;20884;-53
2023/09/15 05:17:29;;;;;;;44.55;33.70;;;;;;;18.73;91.28;97958.78;10404697;28;20101;-54
2023/09/15 05:22:27;;;;;;;44.45;35.33;;;;;;;18.49;90.41;97905.16;10409141;28;21018;-53
2023/09/15 05:27:26;;;;;;;45.28;37.38;;;;;;;18.68;90.87;97958.06;10402755;28;20111;-53
2023/09/15 05:32:25;;;;;;;45.20;37.40;;;;;;;18.53;91.00;97940.97;10402502;28;20104;-53
2023/09/15 05:37:24;;;;;;;38.85;33.13;;;;;;;18.81;91.75;97967.31;10408721;28;20477;-53
2023/09/15 05:42:23;;;;;;;35.17;31.33;;;;;;;19.14;90.03;97966.28;10408916;28;20024;-53
2023/09/15 05:47:22;;;;;;;37.22;30.80;;;;;;;19.22;88.46;97961.63;10407220;28;20805;-53
2023/09/15 05:52:21;;;;;;;36.10;31.02;;;;;;;19.35;88.28;97977.91;10407465;28;20535;-54
2023/09/15 05:57:20;;;;;;;35.58;30.40;;;;;;;19.40;88.01;97982.09;10409313;28;20107;-53
2023/09/15 06:02:20;;;;;;;39.35;33.45;;;;;;;19.39;87.33;97975.13;10407557;28;20152;-54
2023/09/15 06:07:20;;;;;;;37.25;33.28;;;;;;;19.37;86.87;97960.25;10409045;28;20116;-53
2023/09/15 06:12:19;;;;;;;39.42;35.22;;;;;;;19.37;87.23;97987.47;10406741;28;20496;-53
2023/09/15 06:17:18;;;;;;;42.42;34.75;;;;;;;19.15;87.77;97942.53;10406281;28;21728;-53
2023/09/15 06:22:17;;;;;;;42.15;34.13;;;;;;;19.48;87.79;97979.19;10405513;28;20044;-53
2023/09/15 06:27:16;;;;;;;35.85;32.05;;;;;;;19.54;87.54;97983.41;10407757;28;20059;-54
2023/09/15 06:32:15;;;;;;;37.55;33.17;;;;;;;19.35;87.61;97947.16;10401375;28;20040;-55
2023/09/15 06:37:15;;;;;;;36.30;32.20;;;;;;;19.42;87.55;97961.00;10405582;28;20052;-55
2023/09/15 06:42:14;;;;;;;39.22;33.15;;;;;;;19.68;87.88;97986.47;10398741;28;20478;-55
2023/09/15 06:47:13;;;;;;;38.50;34.28;;;;;;;19.66;88.54;97988.28;10405414;28;20545;-57
2023/09/15 06:52:12;;;;;;;37.58;33.50;;;;;;;19.82;88.00;97984.22;10405949;28;20036;-55
2023/09/15 06:57:11;;;;;;;37.30;33.25;;;;;;;20.10;87.12;97977.97;10404429;28;20032;-56
2023/09/15 07:02:10;;;;;;;35.92;32.13;;;;;;;20.24;86.47;97954.63;10405800;28;20029;-56
2023/09/15 07:07:10;;;;;;;51.10;41.45;;;;;;;20.62;84.99;97970.78;10406081;28;20115;-54
2023/09/15 07:12:08;;;;;;;47.13;40.58;;;;;;;20.42;84.61;97931.16;10403769;28;20124;-52
2023/09/15 07:17:10;;;;;;;43.80;37.22;;;;;;;20.87;83.26;97957.53;10406290;28;20060;-53
2023/09/15 07:22:10;;;;;;;43.10;36.85;;;;;;;21.05;82.64;97955.06;10398888;28;20131;-52
2023/09/15 07:27:09;;;;;;;37.08;32.75;;;;;;;20.95;81.44;97949.31;10403467;28;20120;-52
2023/09/15 07:32:08;;;;;;;35.55;30.88;;;;;;;21.02;80.84;97942.00;10405774;28;20548;-53
2023/09/15 07:37:08;;;;;;;33.58;30.10;;;;;;;21.28;80.37;97960.31;10413109;28;20021;-54
2023/09/15 07:42:08;;;;;;;34.05;30.50;;;;;;;20.75;79.76;97822.63;10410900;28;20070;-54
2023/09/15 07:47:12;;;;;;;31.42;27.73;;;;;;;21.68;78.84;97937.50;10411204;28;20060;-54
2023/09/15 07:52:11;;;;;;;25.30;22.70;;;;;;;21.82;75.08;97947.47;10410608;28;20143;-52
2023/09/15 07:57:10;;;;;;;25.02;22.17;;;;;;;21.80;74.98;97945.81;10413124;28;20068;-52
2023/09/15 08:02:09;;;;;;;22.40;19.63;;;;;;;21.99;71.80;97935.34;10410594;28;20064;-52
2023/09/15 08:07:08;;;;;;;24.65;21.13;;;;;;;22.22;72.21;97926.38;10412842;28;20135;-53
2023/09/15 08:12:07;;;;;;;25.85;19.98;;;;;;;22.51;70.89;97925.06;10409314;28;20111;-54
2023/09/15 08:17:07;;;;;;;20.65;18.13;;;;;;;22.74;68.65;97929.28;10411637;28;20590;-54
2023/09/15 08:22:06;;;;;;;22.05;16.27;;;;;;;23.15;66.38;97915.84;10406598;28;20119;-53
2023/09/15 08:27:05;;;;;;;21.38;17.05;;;;;;;23.55;64.80;97905.94;10410158;28;20115;-53
2023/09/15 08:32:04;;;;;;;20.65;16.80;;;;;;;23.76;63.01;97903.97;10410530;28;20035;-54
2023/09/15 08:37:04;;;;;;;19.30;15.35;;;;;;;24.15;60.40;97889.53;10411037;28;21385;-52
2023/09/15 08:42:09;;;;;;;19.98;15.02;;;;;;;24.38;59.26;97888.31;10407125;28;20123;-53
2023/09/15 08:47:09;;;;;;;16.48;13.73;;;;;;;24.37;55.55;97845.00;10408097;28;20076;-54
2023/09/15 08:52:08;;;;;;;20.05;14.98;;;;;;;24.60;55.32;97848.19;10408274;28;20115;-54
2023/09/15 08:57:07;;;;;;;16.92;14.20;;;;;;;24.36;55.42;97866.34;10408390;28;20123;-53
2023/09/15 09:02:11;;;;;;;18.63;14.85;;;;;;;24.70;55.03;97870.59;10406590;28;20059;-54
2023/09/15 09:07:11;;;;;;;16.23;14.05;;;;;;;25.05;53.89;97871.25;10406180;28;20112;-54
2023/09/15 09:12:11;;;;;;;19.23;14.70;;;;;;;25.51;53.67;97857.09;10409701;28;20794;-54
2023/09/15 09:17:11;;;;;;;20.42;14.30;;;;;;;25.65;51.24;97848.31;10411492;28;20064;-52
2023/09/15 09:22:10;;;;;;;17.27;14.90;;;;;;;25.57;51.00;97818.69;10406021;28;20056;-52
2023/09/15 09:27:10;;;;;;;16.98;14.73;;;;;;;25.76;49.11;97847.63;10412006;28;20044;-54
2023/09/15 09:32:15;;;;;;;19.27;15.18;;;;;;;25.80;48.99;97838.53;10411505;28;20080;-54
2023/09/15 09:37:14;;;;;;;15.40;13.43;;;;;;;25.91;47.91;97850.22;10405329;28;20060;-53
2023/09/15 09:42:13;;;;;;;15.82;14.13;;;;;;;26.16;47.94;97849.53;10408887;28;20087;-54
2023/09/15 09:47:12;;;;;;;15.77;14.18;;;;;;;26.57;47.12;97839.91;10408727;28;20029;-55
2023/09/15 09:52:13;;;;;;;17.52;14.18;;;;;;;26.41;46.93;97824.06;10411429;28;20053;-53
2023/09/15 09:57:13;;;;;;;17.15;14.40;;;;;;;26.84;46.66;97831.06;10408793;28;20068;-54
2023/09/15 10:02:12;;;;;;;19.50;15.27;;;;;;;26.88;45.79;97841.44;10410530;28;20052;-53
2023/09/15 10:07:12;;;;;;;15.00;13.35;;;;;;;26.66;45.21;97798.53;10409717;28;20016;-54
2023/09/15 10:12:13;;;;;;;16.55;13.88;;;;;;;26.93;44.95;97817.16;10404553;28;20115;-56
2023/09/15 10:17:13;;;;;;;17.73;14.27;;;;;;;27.20;44.52;97820.63;10401888;28;20128;-54
2023/09/15 10:22:13;;;;;;;17.55;13.77;;;;;;;27.41;44.23;97765.03;10406028;28;20460;-55
2023/09/15 10:27:14;;;;;;;14.90;13.15;;;;;;;27.78;42.55;97793.63;10406258;28;20127;-56
2023/09/15 10:32:17;;;;;;;17.85;13.38;;;;;;;27.72;41.33;97768.22;10406058;28;20096;-56
2023/09/15 10:37:16;;;;;;;15.70;12.93;;;;;;;28.36;41.48;97800.16;10405995;28;20052;-55
2023/09/15 10:42:15;;;;;;;14.70;13.00;;;;;;;28.69;40.58;97796.00;10406399;28;20056;-55
2023/09/15 10:47:17;;;;;;;18.13;13.60;;;;;;;28.59;40.97;97798.44;10400999;28;20121;-54
2023/09/15 10:52:16;;;;;;;14.82;13.20;;;;;;;28.72;40.70;97794.91;10405008;28;20103;-55
2023/09/15 10:57:15;;;;;;;14.48;12.13;;;;;;;28.75;39.46;97763.47;10405000;28;20059;-55
2023/09/15 11:02:14;;;;;;;15.35;12.63;;;;;;;29.25;39.43;97773.94;10406148;28;20052;-56
2023/09/15 11:07:16;;;;;;;14.10;12.60;;;;;;;29.20;38.66;97782.31;10405678;28;20059;-56
2023/09/15 11:12:15;;;;;;;16.80;12.85;;;;;;;29.07;38.97;97747.69;10404864;28;20132;-55
2023/09/15 11:17:17;;;;;;;14.02;12.23;;;;;;;29.06;37.91;97767.38;10404269;28;20512;-55
2023/09/15 11:22:18;;;;;;;13.93;11.90;;;;;;;29.27;38.46;97766.69;10402345;28;20143;-55
2023/09/15 11:27:17;;;;;;;15.50;12.38;;;;;;;29.19;37.48;97745.03;10387926;28;20111;-53
2023/09/15 11:32:18;;;;;;;15.15;11.98;;;;;;;29.21;37.46;97678.97;10405287;28;20139;-53
2023/09/15 11:37:18;;;;;;;12.77;11.48;;;;;;;30.06;35.55;97740.84;10404944;28;20055;-53
2023/09/15 11:42:17;;;;;;;15.18;11.27;;;;;;;30.46;35.10;97755.50;10403567;28;20590;-54
2023/09/15 11:47:16;;;;;;;12.60;10.77;;;;;;;30.89;34.05;97733.16;10402148;28;20892;-54
2023/09/15 11:52:16;;;;;;;17.00;12.45;;;;;;;30.75;34.23;97711.09;10395930;28;20127;-54
2023/09/15 11:57:15;;;;;;;14.10;10.90;;;;;;;30.87;33.59;97736.00;10396564;28;20112;-54
2023/09/15 12:02:18;;;;;;;15.23;11.40;;;;;;;30.69;33.78;97722.31;10398636;28;20056;-54
2023/09/15 12:07:17;;;;;;;13.13;11.70;;;;;;;30.77;34.53;97727.00;10400055;28;20104;-54
2023/09/15 12:12:16;;;;;;;15.98;12.43;;;;;;;30.40;34.56;97721.16;10406264;28;20144;-54
2023/09/15 12:17:16;;;;;;;12.88;11.07;;;;;;;30.29;34.93;97720.25;10400487;28;20135;-54
2023/09/15 12:22:15;;;;;;;17.58;11.60;;;;;;;30.32;34.45;97708.44;10413604;28;20051;-54
2023/09/15 12:27:15;;;;;;;14.23;11.70;;;;;;;30.44;34.92;97699.41;10406084;28;20064;-55
2023/09/15 12:32:14;;;;;;;14.63;11.60;;;;;;;30.28;35.07;97697.13;10412256;28;20048;-54
2023/09/15 12:37:13;;;;;;;14.57;11.70;;;;;;;30.17;35.09;97669.56;10413352;28;20040;-59
2023/09/15 12:42:13;;;;;;;17.40;12.10;;;;;;;30.25;35.16;97692.00;10413233;28;20517;-55
2023/09/15 12:47:12;;;;;;;12.75;11.43;;;;;;;29.72;35.75;97673.16;10412486;28;20059;-57
2023/09/15 12:52:11;;;;;;;15.65;12.27;;;;;;;30.04;36.04;97675.91;10413861;28;20060;-56
2023/09/15 12:57:10;;;;;;;12.45;11.15;;;;;;;29.88;35.80;97657.59;10414062;28;20024;-59
2023/09/15 13:02:09;;;;;;;15.20;11.43;;;;;;;29.89;35.91;97666.47;10414763;28;20063;-55
2023/09/15 13:07:08;;;;;;;15.55;11.65;;;;;;;30.50;35.75;97665.91;10412583;28;20046;-56
2023/09/15 13:12:07;;;;;;;13.77;10.95;;;;;;;30.43;35.11;97660.22;10407572;28;20032;-56
2023/09/15 13:17:06;;;;;;;14.95;11.77;;;;;;;30.65;34.71;97651.22;10408728;28;20079;-55
2023/09/15 13:22:05;;;;;;;12.85;10.02;;;;;;;30.21;34.55;97661.16;10407979;28;20025;-54
2023/09/15 13:27:04;;;;;;;16.58;11.88;;;;;;;30.31;34.98;97656.72;10406943;28;20552;-55
2023/09/15 13:32:03;;;;;;;13.85;9.52;;;;;;;29.47;35.40;97656.38;10406634;28;20087;-55
2023/09/15 13:37:02;;;;;;;13.05;11.30;;;;;;;29.33;35.90;97621.88;10409122;28;20066;-55
2023/09/15 13:42:01;;;;;;;13.00;10.20;;;;;;;29.53;35.97;97656.88;10407764;28;20202;-55
2023/09/15 13:47:00;;;;;;;14.23;11.00;;;;;;;29.56;35.83;97656.63;10407917;28;20427;-55
2023/09/15 13:51:59;;;;;;;13.55;12.25;;;;;;;29.62;36.45;97645.44;10406456;28;20028;-55
2023/09/15 13:56:58;;;;;;;13.10;11.35;;;;;;;29.73;35.75;97657.94;10409021;28;20111;-54
2023/09/15 14:01:57;;;;;;;14.30;11.07;;;;;;;29.43;36.40;97654.91;10406823;28;20143;-56
2023/09/15 14:06:58;;;;;;;12.13;10.82;;;;;;;28.81;37.76;97642.84;10403561;28;20086;-55
2023/09/15 14:11:57;;;;;;;15.73;11.20;;;;;;;28.45;39.10;97667.81;10407773;28;20833;-55
2023/09/15 14:16:56;;;;;;;13.02;11.50;;;;;;;27.85;39.96;97623.38;10407387;28;20083;-58
2023/09/15 14:21:55;;;;;;;16.15;12.50;;;;;;;27.85;40.75;97634.03;10407761;28;20507;-56
2023/09/15 14:26:56;;;;;;;12.82;11.43;;;;;;;27.82;40.89;97664.41;10407000;28;20517;-56
2023/09/15 14:31:55;;;;;;;13.18;11.45;;;;;;;27.64;41.61;97658.63;10407263;28;20147;-57
2023/09/15 14:37:00;;;;;;;17.60;12.38;;;;;;;27.61;42.08;97681.03;10401652;28;20752;-55
2023/09/15 14:41:59;;;;;;;13.60;12.20;;;;;;;27.34;42.31;97673.13;10406328;28;20111;-55
2023/09/15 14:46:58;;;;;;;14.98;12.43;;;;;;;27.35;42.25;97680.19;10407670;28;20085;-55
2023/09/15 14:51:57;;;;;;;12.50;11.20;;;;;;;27.20;42.78;97681.25;10409420;28;20519;-55
2023/09/15 14:56:56;;;;;;;15.45;11.88;;;;;;;26.34;43.15;97554.03;10406743;28;20439;-55
2023/09/15 15:01:55;;;;;;;16.52;12.32;;;;;;;27.22;42.66;97689.16;10406871;28;20056;-54
2023/09/15 15:06:54;;;;;;;14.00;12.52;;;;;;;27.19;42.77;97698.22;10398175;28;20152;-55
2023/09/15 15:11:53;;;;;;;16.45;12.13;;;;;;;26.78;42.75;97664.59;10403146;28;20464;-55
2023/09/15 15:16:52;;;;;;;14.70;11.95;;;;;;;27.16;42.46;97698.41;10405220;28;20515;-55
2023/09/15 15:21:51;;;;;;;14.05;11.95;;;;;;;27.06;42.35;97684.03;10405027;28;20564;-55
2023/09/15 15:26:50;;;;;;;14.30;11.70;;;;;;;27.28;42.40;97708.19;10406024;28;20093;-55
2023/09/15 15:31:53;;;;;;;16.45;12.02;;;;;;;27.44;42.11;97705.31;10404339;28;20035;-55
2023/09/15 15:36:54;;;;;;;16.10;12.43;;;;;;;27.56;41.21;97708.97;10404089;28;20486;-55
2023/09/15 15:41:54;;;;;;;14.32;11.73;;;;;;;27.12;41.29;97640.97;10392308;28;20063;-55
2023/09/15 15:46:53;;;;;;;13.52;11.80;;;;;;;27.59;41.02;97695.44;10401143;28;20056;-55
2023/09/15 15:51:51;;;;;;;18.23;12.32;;;;;;;27.64;41.54;97701.28;10406104;28;20118;-55
2023/09/15 15:56:51;;;;;;;15.40;11.98;;;;;;;27.66;41.98;97709.16;10402648;28;20111;-55
2023/09/15 16:01:51;;;;;;;17.10;11.85;;;;;;;26.72;42.53;97579.81;10406126;28;20526;-55
2023/09/15 16:06:54;;;;;;;14.38;12.68;;;;;;;27.31;42.94;97699.16;10407728;28;20503;-55
2023/09/15 16:11:54;;;;;;;15.98;13.32;;;;;;;27.38;43.74;97725.28;10406176;28;20132;-56
2023/09/15 16:16:55;;;;;;;15.38;13.15;;;;;;;27.25;43.91;97718.22;10408392;28;20163;-61
2023/09/15 16:21:54;;;;;;;16.73;13.35;;;;;;;27.14;44.17;97734.94;10406946;28;20538;-56
2023/09/15 16:26:53;;;;;;;18.85;13.50;;;;;;;26.95;44.32;97738.88;10409415;28;20040;-56
2023/09/15 16:31:52;;;;;;;19.45;15.98;;;;;;;26.63;44.99;97741.03;10408947;28;20037;-56
2023/09/15 16:36:53;;;;;;;15.80;13.70;;;;;;;26.09;45.99;97682.47;10409891;28;20036;-55
2023/09/15 16:41:52;;;;;;;26.08;16.05;;;;;;;26.10;46.46;97706.31;10408523;28;20056;-55
2023/09/15 16:46:51;;;;;;;16.90;14.50;;;;;;;25.68;46.38;97656.75;10409003;28;20063;-56
2023/09/15 16:51:53;;;;;;;19.58;15.23;;;;;;;26.12;46.78;97768.22;10405706;28;20526;-55
2023/09/15 16:56:52;;;;;;;17.55;14.35;;;;;;;26.07;47.09;97774.81;10408951;28;20124;-55
2023/09/15 17:01:51;;;;;;;22.40;15.93;;;;;;;25.90;47.81;97778.50;10406648;28;20090;-56
2023/09/15 17:06:50;;;;;;;23.52;17.20;;;;;;;25.74;48.80;97791.94;10406041;28;20427;-55
2023/09/15 17:11:49;;;;;;;21.38;16.40;;;;;;;25.59;49.17;97796.38;10408678;28;20143;-53
2023/09/15 17:16:48;;;;;;;21.02;15.50;;;;;;;25.51;49.02;97803.94;10406432;28;20045;-54
2023/09/15 17:21:47;;;;;;;21.13;15.73;;;;;;;25.38;49.28;97810.94;10404422;28;20123;-55
2023/09/15 17:26:47;;;;;;;22.58;15.95;;;;;;;25.11;50.06;97796.56;10407504;28;20112;-53
2023/09/15 17:31:46;;;;;;;23.70;18.05;;;;;;;25.17;50.13;97832.50;10405907;28;20109;-53
2023/09/15 17:36:44;;;;;;;24.15;18.25;;;;;;;24.60;51.94;97819.00;10405474;28;20143;-55
2023/09/15 17:41:43;;;;;;;20.23;15.27;;;;;;;24.55;52.77;97851.09;10406672;28;20034;-54
2023/09/15 17:46:42;;;;;;;17.85;15.32;;;;;;;24.47;52.70;97856.84;10404079;28;20032;-55
2023/09/15 17:51:41;;;;;;;16.40;14.68;;;;;;;24.44;52.80;97874.72;10406698;28;20033;-54
2023/09/15 17:56:40;;;;;;;15.63;14.00;;;;;;;24.33;53.61;97888.56;10405444;28;20403;-57
2023/09/15 18:01:39;;;;;;;53.40;22.10;;;;;;;24.28;56.50;97899.41;10405936;28;20036;-54
2023/09/15 18:06:38;;;;;;;35.42;22.17;;;;;;;23.99;67.73;97906.25;10405140;28;20034;-56
2023/09/15 18:11:37;;;;;;;31.80;24.00;;;;;;;23.48;72.87;97910.69;10403944;28;20072;-56
2023/09/15 18:16:36;;;;;;;30.80;24.80;;;;;;;23.21;76.31;97924.34;10403403;28;20141;-57
2023/09/15 18:21:35;;;;;;;32.97;24.58;;;;;;;22.85;78.26;97873.22;10405205;28;20016;-55
2023/09/15 18:26:34;;;;;;;32.25;24.60;;;;;;;23.01;81.20;97922.66;10405610;28;20021;-55
2023/09/15 18:31:33;;;;;;;35.90;25.92;;;;;;;22.98;82.55;97930.75;10404095;28;20024;-55
2023/09/15 18:36:32;;;;;;;32.92;25.83;;;;;;;22.93;82.62;97931.94;10404259;28;20571;-55
2023/09/15 18:41:32;;;;;;;33.00;25.63;;;;;;;22.85;82.77;97937.56;10404804;28;20032;-55
2023/09/15 18:46:31;;;;;;;33.72;25.25;;;;;;;22.75;83.22;97945.09;10402771;28;20456;-56
2023/09/15 18:51:30;;;;;;;33.67;24.23;;;;;;;22.62;83.91;97946.56;10402928;28;20410;-55
2023/09/15 18:56:30;;;;;;;33.30;24.55;;;;;;;22.65;83.34;97964.94;10404591;28;20028;-55
2023/09/15 19:01:29;;;;;;;29.40;24.20;;;;;;;22.60;82.46;97965.16;10402992;28;20132;-55
2023/09/15 19:06:28;;;;;;;30.10;23.92;;;;;;;22.52;82.50;97969.94;10401752;28;20055;-55
2023/09/15 19:11:27;;;;;;;27.75;23.25;;;;;;;22.47;81.92;97984.31;10404005;28;21249;-55
2023/09/15 19:16:26;;;;;;;31.75;23.05;;;;;;;22.16;82.38;97930.19;10402665;28;20066;-55
2023/09/15 19:21:25;;;;;;;28.58;23.23;;;;;;;22.47;82.91;97979.88;10403578;28;20033;-55
2023/09/15 19:26:24;;;;;;;29.67;24.90;;;;;;;22.36;83.21;97980.34;10402308;28;20064;-55
2023/09/15 19:31:22;;;;;;;29.50;24.42;;;;;;;22.31;83.62;97976.19;10399382;28;20265;-55
2023/09/15 19:36:21;;;;;;;32.47;26.35;;;;;;;22.16;83.47;97977.75;10401748;28;20137;-55
2023/09/15 19:41:20;;;;;;;29.50;23.95;;;;;;;22.08;83.26;97985.16;10402769;28;20049;-54
2023/09/15 19:46:20;;;;;;;30.58;24.50;;;;;;;21.90;82.63;97990.28;10404341;28;20098;-55
2023/09/15 19:51:19;;;;;;;24.98;21.80;;;;;;;21.84;82.63;97987.03;10403218;28;20889;-55
2023/09/15 19:56:18;;;;;;;27.10;21.85;;;;;;;21.71;82.00;97984.06;10404190;28;20493;-54
2023/09/15 20:01:17;;;;;;;29.92;22.20;;;;;;;21.41;82.23;97949.25;10404188;28;20632;-55
2023/09/15 20:06:16;;;;;;;29.10;20.45;;;;;;;21.61;81.11;97988.00;10403852;28;20025;-55
2023/09/15 20:11:15;;;;;;;25.42;20.88;;;;;;;21.43;81.65;97958.84;10404693;28;20036;-55
2023/09/15 20:16:15;;;;;;;23.88;20.00;;;;;;;21.58;82.20;97998.72;10401715;28;20036;-55
2023/09/15 20:21:15;;;;;;;23.35;20.02;;;;;;;21.46;82.56;97995.66;10403841;28;20503;-54
2023/09/15 20:26:14;;;;;;;25.15;19.85;;;;;;;21.47;82.95;98007.91;10404489;28;20052;-54
2023/09/15 20:31:13;;;;;;;22.95;18.63;;;;;;;21.37;83.17;97989.91;10401879;28;20506;-54
2023/09/15 20:36:11;;;;;;;24.23;19.27;;;;;;;21.29;81.27;97993.72;10401523;28;20036;-55
2023/09/15 20:41:10;;;;;;;19.33;15.13;;;;;;;21.13;77.21;98003.97;10408087;28;20794;-54
2023/09/15 20:46:09;;;;;;;25.55;16.48;;;;;;;21.13;77.22;98005.78;10409455;28;20480;-54
2023/09/15 20:51:08;;;;;;;20.17;15.65;;;;;;;20.98;76.79;97961.50;10409048;28;20437;-54
2023/09/15 20:56:07;;;;;;;20.10;16.20;;;;;;;21.14;76.69;97994.28;10408885;28;20555;-55
2023/09/15 21:01:06;;;;;;;17.65;14.05;;;;;;;21.11;76.44;98000.53;10409424;28;20020;-54
2023/09/15 21:06:06;;;;;;;17.60;14.88;;;;;;;21.11;76.14;97997.91;10407562;28;20052;-55
2023/09/15 21:11:05;;;;;;;19.05;14.50;;;;;;;21.14;76.56;97995.13;10410962;28;20488;-54
2023/09/15 21:16:04;;;;;;;20.88;14.18;;;;;;;21.16;76.02;97992.44;10414218;28;20416;-54
2023/09/15 21:21:03;;;;;;;17.10;14.38;;;;;;;20.95;76.11;97996.78;10410336;28;20024;-53
2023/09/15 21:26:03;;;;;;;18.20;13.40;;;;;;;20.94;75.93;97989.81;10411274;28;20020;-55
2023/09/15 21:31:05;;;;;;;18.70;14.73;;;;;;;20.93;75.75;97977.53;10411786;28;20746;-54
2023/09/15 21:36:04;;;;;;;17.95;14.55;;;;;;;21.03;75.82;97981.53;10412702;28;20064;-54
2023/09/15 21:41:04;;;;;;;17.48;15.07;;;;;;;21.00;76.37;97976.34;10413310;28;20028;-54
2023/09/15 21:46:03;;;;;;;16.73;14.93;;;;;;;20.90;77.34;97935.44;10411029;28;20068;-54
2023/09/15 21:51:02;;;;;;;19.08;15.57;;;;;;;20.96;78.06;97963.34;10411783;28;20064;-54
2023/09/15 21:56:01;;;;;;;23.42;17.27;;;;;;;20.87;77.92;97959.31;10412046;28;20055;-55
2023/09/15 22:01:00;;;;;;;20.77;16.48;;;;;;;20.70;77.57;97946.75;10413538;28;20108;-54
2023/09/15 22:05:59;;;;;;;17.50;15.00;;;;;;;20.53;76.54;97926.31;10410466;28;20032;-54
2023/09/15 22:10:58;;;;;;;19.05;14.50;;;;;;;20.62;75.95;97956.75;10409329;28;21276;-54
2023/09/15 22:15:57;;;;;;;15.88;13.32;;;;;;;20.61;74.83;97958.53;10411329;28;20491;-54
2023/09/15 22:21:00;;;;;;;17.70;14.20;;;;;;;20.44;74.58;97930.16;10411441;28;20120;-54
2023/09/15 22:25:59;;;;;;;16.55;13.18;;;;;;;20.48;75.63;97936.19;10412226;28;20056;-53
2023/09/15 22:30:58;;;;;;;16.40;14.32;;;;;;;20.54;75.70;97949.16;10412557;28;20090;-53
2023/09/15 22:36:04;;;;;;;18.42;14.15;;;;;;;20.17;75.82;97910.13;10411964;28;20884;-54
2023/09/15 22:41:05;;;;;;;20.88;16.10;;;;;;;20.45;76.86;97962.69;10409985;28;20056;-53